createdAt,value
2022-10-25T00:02:23.772Z,1.38
2022-10-25T00:05:18.869Z,1.30
2022-10-25T00:08:04.931Z,1.60
2022-10-25T00:10:50.753Z,1.60
2022-10-25T00:13:37.042Z,1.80
2022-10-25T00:16:25.637Z,1.60
2022-10-25T00:19:12.029Z,1.63
2022-10-25T00:21:57.618Z,1.73
2022-10-25T00:24:43.191Z,1.67
2022-10-25T00:27:28.563Z,1.80
2022-10-25T00:30:14.348Z,1.77
2022-10-25T00:33:00.262Z,1.77
2022-10-25T00:35:45.663Z,1.80
2022-10-25T00:38:31.565Z,1.85
2022-10-25T00:41:21.325Z,2.63
2022-10-25T00:47:41.812Z,1.50
2022-10-25T00:50:45.092Z,1.80
2022-10-25T00:53:37.728Z,1.60
2022-10-25T00:56:27.038Z,1.90
2022-10-25T00:59:17.760Z,2.08
2022-10-25T01:02:03.341Z,2.45
2022-10-25T01:04:50.690Z,1.92
2022-10-25T01:07:36.962Z,2.58
2022-10-25T01:10:22.481Z,3.33
2022-10-25T01:13:08.033Z,1.98
2022-10-25T01:16:17.664Z,1.98
2022-10-25T01:22:12.117Z,2.00
2022-10-25T01:28:05.116Z,2.05
2022-10-25T01:31:13.852Z,1.58
2022-10-25T01:34:10.267Z,1.42
2022-10-25T01:37:05.036Z,1.73
2022-10-25T01:40:15.237Z,2.05
2022-10-25T01:43:33.010Z,1.60
2022-10-25T01:46:29.433Z,1.90
2022-10-25T01:49:24.646Z,1.90
2022-10-25T01:52:10.364Z,2.15
2022-10-25T01:54:55.571Z,1.98
2022-10-25T01:57:47.458Z,1.58
2022-10-25T02:00:44.446Z,2.20
2022-10-25T02:03:30.383Z,1.80
2022-10-25T02:06:20.114Z,1.80
2022-10-25T02:09:14.476Z,1.70
2022-10-25T02:12:03.118Z,1.70
2022-10-25T02:15:10.176Z,1.65
2022-10-25T02:18:00.872Z,1.95
2022-10-25T02:20:48.561Z,1.50
2022-10-25T02:23:37.374Z,1.70
2022-10-25T02:26:24.184Z,2.13
2022-10-25T02:29:11.747Z,1.50
2022-10-25T02:31:57.779Z,2.25
2022-10-25T02:34:43.428Z,1.60
2022-10-25T02:37:32.756Z,2.03
2022-10-25T02:40:18.594Z,1.77
2022-10-25T02:43:04.346Z,2.05
2022-10-25T02:45:50.520Z,1.75
2022-10-25T02:48:39.044Z,1.80
2022-10-25T02:51:24.308Z,1.52
2022-10-25T02:54:10.610Z,1.75
2022-10-25T02:56:56.136Z,2.60
2022-10-25T02:59:41.572Z,1.70
2022-10-25T03:02:27.159Z,1.58
2022-10-25T03:05:12.494Z,1.42
2022-10-25T03:07:57.982Z,2.00
2022-10-25T03:10:43.488Z,1.90
2022-10-25T03:13:28.969Z,1.80
2022-10-25T03:16:14.628Z,1.58
2022-10-25T03:19:00.377Z,1.80
2022-10-25T03:21:46.117Z,2.00
2022-10-25T03:24:32.243Z,1.40
2022-10-25T03:27:17.831Z,3.70
2022-10-25T03:30:05.780Z,1.70
2022-10-25T03:32:51.435Z,1.90
2022-10-25T03:35:37.899Z,1.80
2022-10-25T03:38:23.466Z,1.60
2022-10-25T03:41:09.379Z,1.80
2022-10-25T03:43:55.022Z,1.67
2022-10-25T03:46:40.532Z,1.95
2022-10-25T03:49:26.590Z,1.75
2022-10-25T03:52:12.102Z,1.80
2022-10-25T03:54:57.660Z,1.60
2022-10-25T03:57:43.541Z,1.55
2022-10-25T04:00:30.013Z,1.73
2022-10-25T04:03:16.838Z,2.00
2022-10-25T04:06:03.049Z,1.52
2022-10-25T04:08:48.712Z,1.48
2022-10-25T04:11:34.261Z,1.80
2022-10-25T04:14:20.222Z,1.90
2022-10-25T04:17:05.897Z,1.90
2022-10-25T04:19:51.462Z,1.90
2022-10-25T04:25:29.644Z,1.88
2022-10-25T04:28:15.052Z,1.75
2022-10-25T04:31:01.616Z,1.98
2022-10-25T04:33:54.277Z,1.65
2022-10-25T04:36:40.152Z,1.70
2022-10-25T04:39:26.296Z,1.88
2022-10-25T04:42:12.257Z,1.50
2022-10-25T04:44:58.130Z,1.83
2022-10-25T04:47:43.722Z,1.63
2022-10-25T04:50:29.337Z,1.63
2022-10-25T04:53:14.856Z,2.28
2022-10-25T04:56:05.609Z,1.55
2022-10-25T04:58:52.592Z,1.58
2022-10-25T05:01:38.456Z,1.90
2022-10-25T05:04:24.370Z,1.73
2022-10-25T05:07:10.835Z,1.58
2022-10-25T05:10:05.263Z,2.05
2022-10-25T05:12:57.848Z,1.80
2022-10-25T05:15:43.703Z,1.67
2022-10-25T05:18:30.508Z,1.77
2022-10-25T05:21:17.126Z,1.90
2022-10-25T05:24:03.367Z,2.20
2022-10-25T05:26:49.238Z,2.40
2022-10-25T05:29:36.089Z,2.67
2022-10-25T05:32:21.270Z,1.50
2022-10-25T05:35:09.611Z,1.83
2022-10-25T05:37:55.125Z,1.70
2022-10-25T05:40:42.108Z,1.83
2022-10-25T05:43:29.398Z,2.05
2022-10-25T05:46:18.631Z,2.03
2022-10-25T05:49:05.057Z,2.20
2022-10-25T05:51:50.996Z,1.90
2022-10-25T05:54:37.169Z,1.83
2022-10-25T05:57:22.978Z,1.60
2022-10-25T06:00:08.848Z,1.67
2022-10-25T06:02:54.148Z,1.60
2022-10-25T06:05:39.659Z,1.50
2022-10-25T06:08:25.440Z,1.70
2022-10-25T06:11:13.956Z,2.00
2022-10-25T06:13:59.544Z,1.80
2022-10-25T06:16:45.087Z,1.77
2022-10-25T06:19:30.527Z,1.90
2022-10-25T06:22:16.064Z,1.70
2022-10-25T06:25:01.792Z,1.55
2022-10-25T06:27:47.142Z,1.90
2022-10-25T06:30:33.277Z,1.45
2022-10-25T06:33:18.730Z,1.95
2022-10-25T06:36:05.890Z,1.55
2022-10-25T06:38:51.726Z,1.40
2022-10-25T06:41:37.940Z,2.00
2022-10-25T06:44:23.836Z,1.90
2022-10-25T06:47:17.499Z,1.92
2022-10-25T06:50:04.121Z,2.33
2022-10-25T06:52:49.929Z,1.88
2022-10-25T06:55:35.382Z,1.80
2022-10-25T06:58:21.190Z,2.00
2022-10-25T07:01:10.389Z,1.83
2022-10-25T07:03:56.256Z,2.27
2022-10-25T07:06:42.159Z,1.85
2022-10-25T07:09:28.642Z,1.83
2022-10-25T07:12:14.112Z,1.80
2022-10-25T07:14:59.818Z,1.63
2022-10-25T07:17:45.617Z,1.35
2022-10-25T07:20:31.442Z,1.80
2022-10-25T07:23:17.161Z,2.08
2022-10-25T07:26:02.706Z,1.55
2022-10-25T07:28:51.625Z,1.65
2022-10-25T07:31:41.005Z,1.48
2022-10-25T07:34:26.673Z,1.65
2022-10-25T07:37:12.310Z,1.88
2022-10-25T07:39:57.787Z,1.58
2022-10-25T07:42:43.394Z,1.48
2022-10-25T07:45:31.203Z,2.05
2022-10-25T07:48:16.923Z,1.70
2022-10-25T07:51:07.581Z,2.03
2022-10-25T07:53:53.661Z,1.83
2022-10-25T07:56:39.623Z,1.73
2022-10-25T07:59:25.030Z,1.60
2022-10-25T08:02:12.300Z,1.33
2022-10-25T08:04:57.729Z,1.92
2022-10-25T08:07:43.520Z,2.08
2022-10-25T08:10:29.293Z,1.63
2022-10-25T08:13:14.998Z,1.60
2022-10-25T08:16:00.687Z,1.40
2022-10-25T08:18:46.290Z,1.80
2022-10-25T08:21:31.821Z,1.80
2022-10-25T08:24:17.477Z,1.50
2022-10-25T08:27:02.824Z,1.52
2022-10-25T08:29:48.331Z,1.60
2022-10-25T08:32:37.573Z,1.55
2022-10-25T08:35:23.307Z,1.40
2022-10-25T08:38:08.809Z,1.50
2022-10-25T08:41:03.997Z,1.55
2022-10-25T08:44:26.348Z,1.30
2022-10-25T08:47:34.996Z,1.88
2022-10-25T08:50:22.549Z,1.48
2022-10-25T08:53:27.966Z,1.35
2022-10-25T08:56:17.872Z,1.45
2022-10-25T08:59:05.046Z,1.67
2022-10-25T09:01:55.334Z,1.30
2022-10-25T09:04:40.954Z,1.63
2022-10-25T09:07:44.959Z,2.20
2022-10-25T09:10:53.730Z,1.00
2022-10-25T09:14:00.544Z,1.20
2022-10-25T09:17:22.928Z,1.13
2022-10-25T09:20:32.281Z,1.40
2022-10-25T09:23:32.146Z,1.55
2022-10-25T09:26:31.304Z,3.42
2022-10-25T09:29:41.178Z,2.65
2022-10-25T09:32:45.123Z,4.28
2022-10-25T09:35:45.370Z,4.00
2022-10-25T09:38:43.123Z,4.00
2022-10-25T09:41:42.905Z,4.53
2022-10-25T09:44:42.388Z,3.85
2022-10-25T09:47:40.406Z,1.73
2022-10-25T09:50:34.267Z,2.95
2022-10-25T09:53:23.106Z,2.90
2022-10-25T09:56:09.667Z,1.50
2022-10-25T09:58:55.208Z,2.75
2022-10-25T10:01:41.871Z,1.75
2022-10-25T10:04:38.662Z,1.30
2022-10-25T10:07:29.799Z,2.10
2022-10-25T10:10:20.972Z,1.90
2022-10-25T10:13:35.777Z,2.25
2022-10-25T10:16:30.477Z,1.73
2022-10-25T10:19:24.139Z,1.70
2022-10-25T10:22:14.107Z,1.85
2022-10-25T10:25:02.113Z,2.00
2022-10-25T10:27:50.389Z,2.65
2022-10-25T10:30:38.881Z,1.40
2022-10-25T10:33:31.736Z,0.93
2022-10-25T10:36:26.689Z,1.25
2022-10-25T10:39:23.270Z,1.48
2022-10-25T10:42:36.558Z,2.20
2022-10-25T10:45:22.042Z,2.03
2022-10-25T10:48:19.320Z,2.60
2022-10-25T10:51:09.034Z,1.60
2022-10-25T10:53:57.556Z,1.70
2022-10-25T10:56:43.252Z,1.50
2022-10-25T10:59:56.181Z,1.70
2022-10-25T11:02:42.796Z,1.50
2022-10-25T11:05:31.475Z,2.22
2022-10-25T11:08:19.877Z,2.28
2022-10-25T11:11:21.515Z,2.25
2022-10-25T11:14:15.400Z,1.20
2022-10-25T11:17:26.183Z,1.27
2022-10-25T11:20:25.259Z,1.42
2022-10-25T11:23:22.623Z,1.17
2022-10-25T11:26:36.727Z,1.85
2022-10-25T11:30:08.044Z,1.60
2022-10-25T11:33:16.700Z,1.30
2022-10-25T11:36:13.766Z,1.02
2022-10-25T11:39:19.570Z,1.00
2022-10-25T11:42:50.227Z,1.73
2022-10-25T11:45:46.967Z,1.55
2022-10-25T11:48:51.222Z,2.05
2022-10-25T11:51:49.003Z,1.40
2022-10-25T11:54:49.554Z,1.10
2022-10-25T11:57:56.338Z,2.50
2022-10-25T12:01:06.353Z,1.73
2022-10-25T12:03:54.861Z,1.27
2022-10-25T12:06:45.150Z,1.37
2022-10-25T12:09:42.697Z,1.33
2022-10-25T12:12:55.445Z,1.40
2022-10-25T12:15:47.876Z,2.05
2022-10-25T12:18:46.020Z,1.40
2022-10-25T12:21:46.349Z,1.13
2022-10-25T12:25:02.504Z,1.30
2022-10-25T12:27:55.780Z,1.30
2022-10-25T12:30:44.121Z,1.35
2022-10-25T12:34:06.325Z,1.15
2022-10-25T12:37:06.265Z,1.30
2022-10-25T12:39:52.289Z,1.38
2022-10-25T12:42:46.705Z,0.95
2022-10-25T12:45:53.502Z,1.73
2022-10-25T12:49:03.265Z,1.45
2022-10-25T12:52:23.470Z,1.70
2022-10-25T12:55:24.206Z,1.23
2022-10-25T12:58:26.762Z,1.42
2022-10-25T13:01:34.051Z,1.75
2022-10-25T13:04:44.789Z,1.70
2022-10-25T13:07:33.122Z,1.13
2022-10-25T13:10:22.114Z,1.00
2022-10-25T13:16:03.346Z,1.70
2022-10-25T13:19:42.793Z,1.10
2022-10-25T13:22:41.993Z,1.35
2022-10-25T13:25:30.601Z,0.73
2022-10-25T13:28:16.192Z,0.57
2022-10-25T13:31:36.036Z,0.93
2022-10-25T13:34:29.246Z,0.63
2022-10-25T13:37:33.551Z,0.82
2022-10-25T13:40:26.607Z,0.60
2022-10-25T13:43:21.107Z,0.75
2022-10-25T13:46:10.040Z,0.60
2022-10-25T13:48:55.880Z,0.40
2022-10-25T13:51:41.753Z,0.50
2022-10-25T13:54:55.124Z,0.77
2022-10-25T13:57:58.775Z,0.80
2022-10-25T14:00:49.739Z,0.40
2022-10-25T14:03:50.265Z,0.60
2022-10-25T14:06:35.704Z,0.50
2022-10-25T14:09:29.982Z,1.10
2022-10-25T14:12:20.252Z,0.60
2022-10-25T14:15:34.296Z,0.60
2022-10-25T14:18:23.124Z,0.50
2022-10-25T14:21:12.148Z,0.60
2022-10-25T14:23:58.243Z,0.57
2022-10-25T14:27:30.388Z,0.50
2022-10-25T14:30:28.324Z,0.85
2022-10-25T14:33:23.205Z,0.85
2022-10-25T14:36:19.705Z,0.38
2022-10-25T14:39:18.590Z,0.60
2022-10-25T14:42:05.060Z,0.40
2022-10-25T14:44:50.873Z,0.90
2022-10-25T14:47:36.533Z,0.60
2022-10-25T14:50:25.743Z,0.55
2022-10-25T14:53:16.864Z,0.98
2022-10-25T14:56:05.227Z,0.50
2022-10-25T14:58:50.959Z,0.60
2022-10-25T15:01:37.452Z,0.85
2022-10-25T15:04:40.034Z,0.50
2022-10-25T15:07:32.738Z,0.95
2022-10-25T15:10:41.106Z,0.90
2022-10-25T15:13:30.213Z,0.43
2022-10-25T15:16:31.290Z,0.53
2022-10-25T15:19:20.451Z,0.52
2022-10-25T15:22:10.716Z,0.95
2022-10-25T15:24:57.620Z,0.80
2022-10-25T15:27:43.681Z,0.75
2022-10-25T15:30:38.139Z,0.68
2022-10-25T15:33:33.441Z,0.65
2022-10-25T15:36:22.209Z,1.08
2022-10-25T15:39:26.471Z,0.63
2022-10-25T15:42:14.544Z,0.60
2022-10-25T15:45:00.885Z,0.82
2022-10-25T15:47:47.544Z,0.80
2022-10-25T15:50:33.814Z,0.60
2022-10-25T15:53:19.849Z,0.70
2022-10-25T15:56:05.455Z,0.75
2022-10-25T15:58:51.296Z,0.60
2022-10-25T16:01:38.759Z,0.63
2022-10-25T16:04:25.500Z,0.88
2022-10-25T16:07:12.765Z,0.82
2022-10-25T16:09:58.280Z,0.95
2022-10-25T16:12:48.451Z,1.52
2022-10-25T16:15:34.381Z,1.50
2022-10-25T16:18:20.746Z,1.50
2022-10-25T16:21:06.840Z,1.58
2022-10-25T16:23:52.391Z,1.40
2022-10-25T16:26:48.502Z,0.93
2022-10-25T16:29:34.195Z,1.20
2022-10-25T16:32:20.290Z,1.35
2022-10-25T16:35:06.654Z,0.77
2022-10-25T16:37:52.588Z,1.05
2022-10-25T16:40:38.299Z,0.90
2022-10-25T16:43:23.922Z,1.42
2022-10-25T16:46:09.436Z,1.15
2022-10-25T16:48:57.044Z,1.00
2022-10-25T16:51:45.396Z,1.00
2022-10-25T16:54:30.996Z,0.90
2022-10-25T16:57:16.633Z,0.90
2022-10-25T17:00:03.589Z,0.80
2022-10-25T17:02:49.723Z,1.17
2022-10-25T17:05:38.936Z,0.85
2022-10-25T17:08:25.141Z,1.05
2022-10-25T17:11:12.668Z,0.88
2022-10-25T17:13:58.580Z,0.70
2022-10-25T17:16:44.887Z,0.82
2022-10-25T17:19:30.540Z,0.88
2022-10-25T17:22:15.833Z,0.90
2022-10-25T17:25:01.414Z,0.80
2022-10-25T17:27:51.163Z,1.08
2022-10-25T17:30:36.812Z,0.90
2022-10-25T17:33:23.222Z,0.90
2022-10-25T17:36:15.816Z,0.90
2022-10-25T17:39:01.385Z,1.20
2022-10-25T17:41:46.799Z,0.90
2022-10-25T17:44:32.352Z,0.90
2022-10-25T17:47:18.062Z,1.10
2022-10-25T17:50:05.297Z,0.90
2022-10-25T17:52:51.640Z,1.42
2022-10-25T17:55:40.998Z,1.08
2022-10-25T18:01:14.932Z,1.00
2022-10-25T18:04:01.397Z,1.70
2022-10-25T18:06:47.079Z,1.92
2022-10-25T18:09:33.470Z,1.60
2022-10-25T18:12:19.562Z,1.30
2022-10-25T18:15:06.471Z,1.27
2022-10-25T18:17:52.210Z,1.38
2022-10-25T18:20:40.505Z,1.50
2022-10-25T18:23:26.279Z,1.40
2022-10-25T18:26:13.278Z,1.30
2022-10-25T18:29:00.277Z,1.25
2022-10-25T18:31:46.193Z,1.40
2022-10-25T18:34:31.754Z,1.30
2022-10-25T18:37:17.430Z,1.08
2022-10-25T18:40:04.937Z,1.38
2022-10-25T18:42:50.723Z,1.40
2022-10-25T18:45:36.710Z,1.30
2022-10-25T18:48:22.414Z,1.80
2022-10-25T18:51:11.846Z,1.30
2022-10-25T18:53:59.918Z,0.70
2022-10-25T18:56:45.585Z,1.00
2022-10-25T18:59:31.231Z,1.20
2022-10-25T19:02:16.985Z,1.20
2022-10-25T19:05:02.349Z,1.05
2022-10-25T19:07:48.202Z,1.10
2022-10-25T19:10:40.371Z,1.42
2022-10-25T19:13:25.961Z,1.42
2022-10-25T19:16:13.371Z,1.30
2022-10-25T19:19:07.091Z,1.25
2022-10-25T19:21:53.323Z,1.00
2022-10-25T19:24:39.168Z,1.30
2022-10-25T19:27:24.815Z,1.00
2022-10-25T19:30:11.304Z,1.10
2022-10-25T19:32:57.039Z,1.30
2022-10-25T19:35:42.628Z,1.45
2022-10-25T19:38:28.167Z,1.20
2022-10-25T19:41:16.390Z,1.38
2022-10-25T19:44:02.068Z,2.30
2022-10-25T19:46:51.642Z,1.52
2022-10-25T19:49:37.195Z,1.25
2022-10-25T19:52:24.583Z,1.10
2022-10-25T19:55:10.234Z,1.60
2022-10-25T19:57:55.679Z,1.30
2022-10-25T20:00:41.352Z,1.45
2022-10-25T20:03:26.950Z,1.30
2022-10-25T20:06:20.216Z,1.38
2022-10-25T20:09:10.341Z,1.27
2022-10-25T20:11:56.038Z,1.33
2022-10-25T20:14:42.866Z,1.30
2022-10-25T20:17:28.650Z,1.20
2022-10-25T20:20:14.156Z,1.30
2022-10-25T20:22:59.729Z,1.10
2022-10-25T20:25:45.239Z,1.15
2022-10-25T20:28:30.771Z,1.10
2022-10-25T20:31:16.235Z,1.10
2022-10-25T20:34:02.689Z,1.40
2022-10-25T20:36:48.957Z,1.52
2022-10-25T20:39:35.129Z,1.17
2022-10-25T20:42:21.556Z,1.20
2022-10-25T20:45:07.232Z,1.20
2022-10-25T20:47:57.914Z,1.20
2022-10-25T20:50:49.469Z,1.50
2022-10-25T20:53:36.899Z,1.10
2022-10-25T20:56:22.896Z,1.45
2022-10-25T20:59:08.930Z,1.30
2022-10-25T21:01:54.348Z,1.08
2022-10-25T21:04:53.387Z,1.17
2022-10-25T21:07:39.679Z,1.48
2022-10-25T21:10:25.240Z,1.30
2022-10-25T21:13:10.958Z,1.50
2022-10-25T21:15:57.167Z,2.78
2022-10-25T21:18:43.648Z,3.00
2022-10-25T21:21:29.346Z,2.90
2022-10-25T21:24:15.022Z,3.10
2022-10-25T21:27:00.333Z,3.00
2022-10-25T21:29:45.817Z,3.83
2022-10-25T21:32:31.431Z,3.13
2022-10-25T21:35:17.832Z,3.40
2022-10-25T21:38:03.903Z,3.10
2022-10-25T21:40:49.382Z,3.38
2022-10-25T21:43:35.557Z,2.63
2022-10-25T21:46:22.502Z,2.50
2022-10-25T21:49:08.079Z,2.10
2022-10-25T21:51:53.522Z,2.22
2022-10-25T21:54:39.155Z,2.15
2022-10-25T21:57:27.944Z,1.65
2022-10-25T22:00:14.155Z,1.60
2022-10-25T22:03:01.002Z,1.80
2022-10-25T22:05:46.342Z,1.20
2022-10-25T22:08:31.980Z,1.13
2022-10-25T22:11:27.159Z,1.20
2022-10-25T22:14:13.896Z,1.20
2022-10-25T22:16:59.550Z,1.40
2022-10-25T22:19:45.101Z,1.40
2022-10-25T22:22:30.723Z,1.40
2022-10-25T22:25:16.317Z,1.20
2022-10-25T22:28:02.094Z,1.10
2022-10-25T22:30:47.425Z,1.30
2022-10-25T22:33:34.344Z,1.02
2022-10-25T22:36:20.940Z,1.92
2022-10-25T22:39:07.993Z,1.20
2022-10-25T22:41:54.732Z,1.15
2022-10-25T22:44:40.598Z,1.10
2022-10-25T22:47:26.051Z,0.95
2022-10-25T22:50:11.634Z,1.00
2022-10-25T22:52:57.172Z,1.10
2022-10-25T22:55:43.179Z,1.17
2022-10-25T22:58:32.558Z,1.05
2022-10-25T23:01:20.820Z,1.20
2022-10-25T23:04:08.676Z,1.27
2022-10-25T23:06:54.287Z,1.88
2022-10-25T23:09:39.992Z,1.00
2022-10-25T23:12:26.562Z,1.30
2022-10-25T23:15:12.076Z,1.88
2022-10-25T23:17:59.571Z,2.00
2022-10-25T23:20:59.038Z,2.05
2022-10-25T23:23:45.895Z,2.40
2022-10-25T23:26:33.426Z,2.58
2022-10-25T23:29:18.950Z,2.60
2022-10-25T23:32:04.689Z,2.70
2022-10-25T23:34:52.503Z,2.45
2022-10-25T23:37:39.373Z,2.60
2022-10-25T23:40:25.126Z,2.67
2022-10-25T23:43:10.461Z,2.30
2022-10-25T23:45:56.086Z,2.03
2022-10-25T23:48:41.754Z,2.63
2022-10-25T23:51:27.634Z,1.80
2022-10-25T23:54:13.246Z,1.33
2022-10-25T23:56:58.635Z,1.40
2022-10-25T23:59:44.266Z,1.13
